sensor_id;sensor_type;location;lat;lon;timestamp;pressure;altitude;pressure_sealevel;temperature;humidity
48848;BME280;36611;51.638;5.784;2022-11-03T00:02:10;101374.53;;;15.83;50.30
48848;BME280;36611;51.638;5.784;2022-11-03T00:04:41;101367.38;;;15.82;50.33
48848;BME280;36611;51.638;5.784;2022-11-03T00:07:09;101368.13;;;15.84;50.30
48848;BME280;36611;51.638;5.784;2022-11-03T00:09:35;101363.44;;;15.86;50.55
48848;BME280;36611;51.638;5.784;2022-11-03T00:12:02;101358.00;;;15.86;50.53
48848;BME280;36611;51.638;5.784;2022-11-03T00:14:29;101359.59;;;15.88;50.26
48848;BME280;36611;51.638;5.784;2022-11-03T00:16:56;101355.78;;;15.91;50.48
48848;BME280;36611;51.638;5.784;2022-11-03T00:19:22;101361.91;;;15.93;50.24
48848;BME280;36611;51.638;5.784;2022-11-03T00:21:49;101347.25;;;15.96;50.44
48848;BME280;36611;51.638;5.784;2022-11-03T00:24:17;101348.13;;;15.96;50.36
48848;BME280;36611;51.638;5.784;2022-11-03T00:26:43;101343.69;;;15.95;50.23
48848;BME280;36611;51.638;5.784;2022-11-03T00:29:11;101341.09;;;15.94;50.33
48848;BME280;36611;51.638;5.784;2022-11-03T00:31:40;101336.41;;;15.96;50.57
48848;BME280;36611;51.638;5.784;2022-11-03T00:34:11;101330.88;;;15.97;50.30
48848;BME280;36611;51.638;5.784;2022-11-03T00:36:39;101330.00;;;15.97;50.67
48848;BME280;36611;51.638;5.784;2022-11-03T00:39:07;101330.00;;;15.97;50.64
48848;BME280;36611;51.638;5.784;2022-11-03T00:41:34;101329.16;;;15.96;50.58
48848;BME280;36611;51.638;5.784;2022-11-03T00:44:01;101323.88;;;15.95;50.51
48848;BME280;36611;51.638;5.784;2022-11-03T00:46:27;101314.00;;;15.94;50.28
48848;BME280;36611;51.638;5.784;2022-11-03T00:48:55;101311.31;;;15.94;50.76
48848;BME280;36611;51.638;5.784;2022-11-03T00:51:24;101313.16;;;15.93;50.46
48848;BME280;36611;51.638;5.784;2022-11-03T00:53:52;101300.47;;;15.94;50.85
48848;BME280;36611;51.638;5.784;2022-11-03T00:56:21;101301.34;;;15.94;50.84
48848;BME280;36611;51.638;5.784;2022-11-03T00:58:49;101294.91;;;15.95;50.38
48848;BME280;36611;51.638;5.784;2022-11-03T01:01:18;101294.06;;;15.95;50.63
48848;BME280;36611;51.638;5.784;2022-11-03T01:03:49;101296.50;;;15.98;50.59
48848;BME280;36611;51.638;5.784;2022-11-03T01:06:56;101293.94;;;15.96;50.60
48848;BME280;36611;51.638;5.784;2022-11-03T01:09:44;101287.78;;;15.94;50.54
48848;BME280;36611;51.638;5.784;2022-11-03T01:12:16;101291.34;;;15.95;50.52
48848;BME280;36611;51.638;5.784;2022-11-03T01:14:51;101284.47;;;15.91;50.47
48848;BME280;36611;51.638;5.784;2022-11-03T01:17:23;101273.31;;;15.84;50.55
48848;BME280;36611;51.638;5.784;2022-11-03T01:19:50;101271.75;;;15.81;50.65
48848;BME280;36611;51.638;5.784;2022-11-03T01:22:18;101273.00;;;15.77;50.86
48848;BME280;36611;51.638;5.784;2022-11-03T01:24:46;101262.44;;;15.74;50.90
48848;BME280;36611;51.638;5.784;2022-11-03T01:27:16;101265.28;;;15.73;50.88
48848;BME280;36611;51.638;5.784;2022-11-03T01:29:43;101261.97;;;15.69;50.97
48848;BME280;36611;51.638;5.784;2022-11-03T01:32:10;101260.38;;;15.67;50.83
48848;BME280;36611;51.638;5.784;2022-11-03T01:34:39;101251.66;;;15.63;50.99
48848;BME280;36611;51.638;5.784;2022-11-03T01:37:06;101244.66;;;15.61;51.12
48848;BME280;36611;51.638;5.784;2022-11-03T01:39:33;101236.88;;;15.56;51.01
48848;BME280;36611;51.638;5.784;2022-11-03T01:41:59;101240.69;;;15.53;51.05
48848;BME280;36611;51.638;5.784;2022-11-03T01:44:35;101242.56;;;15.53;51.20
48848;BME280;36611;51.638;5.784;2022-11-03T01:47:08;101232.59;;;15.53;51.19
48848;BME280;36611;51.638;5.784;2022-11-03T01:49:44;101225.31;;;15.54;51.46
48848;BME280;36611;51.638;5.784;2022-11-03T01:52:31;101224.31;;;15.55;51.80
48848;BME280;36611;51.638;5.784;2022-11-03T01:55:11;101220.41;;;15.59;51.48
48848;BME280;36611;51.638;5.784;2022-11-03T01:57:50;101214.75;;;15.62;51.62
48848;BME280;36611;51.638;5.784;2022-11-03T02:00:19;101220.88;;;15.64;51.29
48848;BME280;36611;51.638;5.784;2022-11-03T02:02:46;101208.47;;;15.62;51.71
48848;BME280;36611;51.638;5.784;2022-11-03T02:05:18;101199.59;;;15.60;51.38
48848;BME280;36611;51.638;5.784;2022-11-03T02:07:52;101203.91;;;15.62;51.48
48848;BME280;36611;51.638;5.784;2022-11-03T02:10:22;101202.06;;;15.63;51.39
48848;BME280;36611;51.638;5.784;2022-11-03T02:12:49;101201.44;;;15.59;51.62
48848;BME280;36611;51.638;5.784;2022-11-03T02:15:19;101196.25;;;15.56;51.69
48848;BME280;36611;51.638;5.784;2022-11-03T02:17:51;101190.97;;;15.54;51.46
48848;BME280;36611;51.638;5.784;2022-11-03T02:20:29;101193.69;;;15.54;51.51
48848;BME280;36611;51.638;5.784;2022-11-03T02:25:56;101180.56;;;15.50;51.62
48848;BME280;36611;51.638;5.784;2022-11-03T02:28:28;101173.41;;;15.49;51.53
48848;BME280;36611;51.638;5.784;2022-11-03T02:31:02;101177.84;;;15.50;51.81
48848;BME280;36611;51.638;5.784;2022-11-03T02:36:14;101168.00;;;15.49;51.54
48848;BME280;36611;51.638;5.784;2022-11-03T02:38:48;101165.44;;;15.47;51.76
48848;BME280;36611;51.638;5.784;2022-11-03T02:41:19;101164.56;;;15.47;51.75
48848;BME280;36611;51.638;5.784;2022-11-03T02:43:47;101163.84;;;15.45;51.70
48848;BME280;36611;51.638;5.784;2022-11-03T02:46:16;101162.13;;;15.44;52.16
48848;BME280;36611;51.638;5.784;2022-11-03T02:48:44;101142.34;;;15.43;52.27
48848;BME280;36611;51.638;5.784;2022-11-03T02:51:10;101148.59;;;15.44;52.06
48848;BME280;36611;51.638;5.784;2022-11-03T02:53:43;101147.63;;;15.45;52.13
48848;BME280;36611;51.638;5.784;2022-11-03T02:56:16;101141.22;;;15.46;52.25
48848;BME280;36611;51.638;5.784;2022-11-03T02:59:00;101141.66;;;15.51;52.04
48848;BME280;36611;51.638;5.784;2022-11-03T03:04:04;101126.88;;;15.55;52.34
48848;BME280;36611;51.638;5.784;2022-11-03T03:06:59;101125.03;;;15.55;52.20
48848;BME280;36611;51.638;5.784;2022-11-03T03:09:33;101119.47;;;15.57;52.04
48848;BME280;36611;51.638;5.784;2022-11-03T03:12:04;101120.47;;;15.56;52.00
48848;BME280;36611;51.638;5.784;2022-11-03T03:14:36;101107.69;;;15.58;52.24
48848;BME280;36611;51.638;5.784;2022-11-03T03:17:11;101116.66;;;15.58;52.40
48848;BME280;36611;51.638;5.784;2022-11-03T03:19:45;101118.63;;;15.56;52.17
48848;BME280;36611;51.638;5.784;2022-11-03T03:24:54;101107.78;;;15.56;51.99
48848;BME280;36611;51.638;5.784;2022-11-03T03:27:25;101102.13;;;15.60;52.14
48848;BME280;36611;51.638;5.784;2022-11-03T03:29:57;101094.78;;;15.62;52.10
48848;BME280;36611;51.638;5.784;2022-11-03T03:32:30;101092.78;;;15.64;52.27
48848;BME280;36611;51.638;5.784;2022-11-03T03:34:59;101092.91;;;15.62;52.41
48848;BME280;36611;51.638;5.784;2022-11-03T03:37:28;101097.47;;;15.62;52.56
48848;BME280;36611;51.638;5.784;2022-11-03T03:39:58;101095.63;;;15.62;52.37
48848;BME280;36611;51.638;5.784;2022-11-03T03:42:27;101087.50;;;15.62;52.47
48848;BME280;36611;51.638;5.784;2022-11-03T03:44:55;101081.09;;;15.63;52.85
48848;BME280;36611;51.638;5.784;2022-11-03T03:47:27;101075.41;;;15.66;52.48
48848;BME280;36611;51.638;5.784;2022-11-03T03:49:55;101067.00;;;15.69;52.63
48848;BME280;36611;51.638;5.784;2022-11-03T03:52:22;101074.13;;;15.70;52.66
48848;BME280;36611;51.638;5.784;2022-11-03T03:54:53;101073.00;;;15.73;52.53
48848;BME280;36611;51.638;5.784;2022-11-03T03:57:22;101076.31;;;15.76;52.85
48848;BME280;36611;51.638;5.784;2022-11-03T03:59:49;101062.50;;;15.79;53.06
48848;BME280;36611;51.638;5.784;2022-11-03T04:02:16;101064.06;;;15.82;52.81
48848;BME280;36611;51.638;5.784;2022-11-03T04:04:46;101054.94;;;15.83;52.64
48848;BME280;36611;51.638;5.784;2022-11-03T04:07:13;101056.66;;;15.84;52.87
48848;BME280;36611;51.638;5.784;2022-11-03T04:09:58;101046.69;;;15.84;52.54
48848;BME280;36611;51.638;5.784;2022-11-03T04:12:25;101050.09;;;15.86;52.92
48848;BME280;36611;51.638;5.784;2022-11-03T04:15:14;101047.13;;;15.89;52.63
48848;BME280;36611;51.638;5.784;2022-11-03T04:17:58;101042.28;;;15.93;52.56
48848;BME280;36611;51.638;5.784;2022-11-03T04:20:43;101019.63;;;15.94;52.70
48848;BME280;36611;51.638;5.784;2022-11-03T04:23:29;101031.31;;;15.95;52.80
48848;BME280;36611;51.638;5.784;2022-11-03T04:25:56;101031.44;;;15.93;52.57
48848;BME280;36611;51.638;5.784;2022-11-03T04:28:24;101032.44;;;15.92;52.78
48848;BME280;36611;51.638;5.784;2022-11-03T04:30:57;101031.44;;;15.93;52.57
48848;BME280;36611;51.638;5.784;2022-11-03T04:33:25;101032.31;;;15.94;52.68
48848;BME280;36611;51.638;5.784;2022-11-03T04:35:52;101031.31;;;15.95;52.87
48848;BME280;36611;51.638;5.784;2022-11-03T04:38:22;101039.31;;;15.96;52.59
48848;BME280;36611;51.638;5.784;2022-11-03T04:40:53;101023.91;;;15.97;52.64
48848;BME280;36611;51.638;5.784;2022-11-03T04:43:27;101022.91;;;15.98;52.94
48848;BME280;36611;51.638;5.784;2022-11-03T04:45:55;101021.78;;;16.00;53.09
48848;BME280;36611;51.638;5.784;2022-11-03T04:48:22;101017.06;;;16.02;52.74
48848;BME280;36611;51.638;5.784;2022-11-03T04:50:52;101018.78;;;16.03;52.88
48848;BME280;36611;51.638;5.784;2022-11-03T04:53:20;101002.53;;;16.03;52.91
48848;BME280;36611;51.638;5.784;2022-11-03T04:55:52;101001.53;;;16.04;53.04
48848;BME280;36611;51.638;5.784;2022-11-03T04:58:25;100996.13;;;16.04;52.79
48848;BME280;36611;51.638;5.784;2022-11-03T05:00:56;100997.97;;;16.04;52.91
48848;BME280;36611;51.638;5.784;2022-11-03T05:03:26;101001.53;;;16.04;53.25
48848;BME280;36611;51.638;5.784;2022-11-03T05:05:56;101003.09;;;16.07;53.04
48848;BME280;36611;51.638;5.784;2022-11-03T05:08:23;100996.69;;;16.08;52.94
48848;BME280;36611;51.638;5.784;2022-11-03T05:10:50;100988.56;;;16.08;53.04
48848;BME280;36611;51.638;5.784;2022-11-03T05:13:23;100981.28;;;16.08;53.33
48848;BME280;36611;51.638;5.784;2022-11-03T05:16:01;100981.00;;;16.11;53.38
48848;BME280;36611;51.638;5.784;2022-11-03T05:18:31;100979.00;;;16.13;53.22
48848;BME280;36611;51.638;5.784;2022-11-03T05:21:00;100978.00;;;16.14;53.21
48848;BME280;36611;51.638;5.784;2022-11-03T05:23:30;100971.44;;;16.17;53.19
48848;BME280;36611;51.638;5.784;2022-11-03T05:26:04;100971.44;;;16.17;53.26
48848;BME280;36611;51.638;5.784;2022-11-03T05:28:37;100963.31;;;16.17;53.12
48848;BME280;36611;51.638;5.784;2022-11-03T05:31:19;100963.63;;;16.14;53.39
48848;BME280;36611;51.638;5.784;2022-11-03T05:33:47;100969.88;;;16.14;53.35
48848;BME280;36611;51.638;5.784;2022-11-03T05:36:20;100953.78;;;16.13;53.46
48848;BME280;36611;51.638;5.784;2022-11-03T05:38:47;100947.34;;;16.14;53.46
48848;BME280;36611;51.638;5.784;2022-11-03T05:41:20;100942.06;;;16.12;53.50
48848;BME280;36611;51.638;5.784;2022-11-03T05:44:00;100935.09;;;16.10;53.34
48848;BME280;36611;51.638;5.784;2022-11-03T05:46:30;100934.38;;;16.08;53.67
48848;BME280;36611;51.638;5.784;2022-11-03T05:49:00;100924.53;;;16.07;53.42
48848;BME280;36611;51.638;5.784;2022-11-03T05:51:38;100922.53;;;16.09;53.21
48848;BME280;36611;51.638;5.784;2022-11-03T05:54:32;100922.13;;;16.04;53.71
48848;BME280;36611;51.638;5.784;2022-11-03T05:57:00;100922.13;;;16.04;53.43
48848;BME280;36611;51.638;5.784;2022-11-03T05:59:28;100923.97;;;16.03;53.76
48848;BME280;36611;51.638;5.784;2022-11-03T06:01:58;100918.41;;;16.05;53.83
48848;BME280;36611;51.638;5.784;2022-11-03T06:04:29;100911.13;;;16.05;53.52
48848;BME280;36611;51.638;5.784;2022-11-03T06:07:01;100910.13;;;16.06;53.90
48848;BME280;36611;51.638;5.784;2022-11-03T06:09:31;100906.56;;;16.06;53.68
48848;BME280;36611;51.638;5.784;2022-11-03T06:12:01;100904.00;;;16.04;53.91
48848;BME280;36611;51.638;5.784;2022-11-03T06:14:35;100897.72;;;16.04;53.57
48848;BME280;36611;51.638;5.784;2022-11-03T06:17:06;100896.16;;;16.01;53.78
48848;BME280;36611;51.638;5.784;2022-11-03T06:19:44;100896.44;;;15.98;53.56
48848;BME280;36611;51.638;5.784;2022-11-03T06:22:18;100890.31;;;15.96;54.05
48848;BME280;36611;51.638;5.784;2022-11-03T06:24:51;100898.44;;;15.96;53.89
48848;BME280;36611;51.638;5.784;2022-11-03T06:27:24;100891.31;;;15.95;53.59
48848;BME280;36611;51.638;5.784;2022-11-03T06:29:56;100884.47;;;15.91;53.66
48848;BME280;36611;51.638;5.784;2022-11-03T06:32:23;100879.19;;;15.89;53.95
48848;BME280;36611;51.638;5.784;2022-11-03T06:34:56;100881.19;;;15.87;53.84
48848;BME280;36611;51.638;5.784;2022-11-03T06:37:30;100882.91;;;15.88;54.04
48848;BME280;36611;51.638;5.784;2022-11-03T06:40:26;100880.19;;;15.88;54.30
48848;BME280;36611;51.638;5.784;2022-11-03T06:42:53;100872.06;;;15.88;53.83
48848;BME280;36611;51.638;5.784;2022-11-03T06:45:25;100874.22;;;15.85;54.29
48848;BME280;36611;51.638;5.784;2022-11-03T06:47:52;100869.66;;;15.85;54.27
48848;BME280;36611;51.638;5.784;2022-11-03T06:50:30;100871.38;;;15.86;54.56
48848;BME280;36611;51.638;5.784;2022-11-03T06:52:58;100870.50;;;15.86;54.12
48848;BME280;36611;51.638;5.784;2022-11-03T06:55:34;100877.50;;;15.88;54.43
48848;BME280;36611;51.638;5.784;2022-11-03T06:58:06;100867.38;;;15.91;54.33
48848;BME280;36611;51.638;5.784;2022-11-03T07:00:39;100877.06;;;15.93;54.66
48848;BME280;36611;51.638;5.784;2022-11-03T07:03:23;100870.50;;;15.96;54.26
48848;BME280;36611;51.638;5.784;2022-11-03T07:05:59;100864.94;;;15.97;54.51
48848;BME280;36611;51.638;5.784;2022-11-03T07:08:34;100863.94;;;15.98;54.51
48848;BME280;36611;51.638;5.784;2022-11-03T07:11:15;100854.81;;;15.99;54.48
48848;BME280;36611;51.638;5.784;2022-11-03T07:13:42;100856.53;;;16.00;54.35
48848;BME280;36611;51.638;5.784;2022-11-03T07:16:27;100860.09;;;16.01;54.43
48848;BME280;36611;51.638;5.784;2022-11-03T07:18:58;100863.50;;;16.03;54.55
48848;BME280;36611;51.638;5.784;2022-11-03T07:22:18;100859.66;;;16.05;54.74
48848;BME280;36611;51.638;5.784;2022-11-03T07:24:52;100860.78;;;16.12;54.64
48848;BME280;36611;51.638;5.784;2022-11-03T07:27:23;100864.38;;;16.13;54.67
48848;BME280;36611;51.638;5.784;2022-11-03T07:29:56;100862.38;;;16.15;54.64
48848;BME280;36611;51.638;5.784;2022-11-03T07:32:28;100846.81;;;16.17;54.57
48848;BME280;36611;51.638;5.784;2022-11-03T07:35:03;100853.81;;;16.19;54.71
48848;BME280;36611;51.638;5.784;2022-11-03T07:37:30;100846.22;;;16.23;54.63
48848;BME280;36611;51.638;5.784;2022-11-03T07:39:57;100841.22;;;16.28;54.70
48848;BME280;36611;51.638;5.784;2022-11-03T07:42:25;100834.81;;;16.29;54.62
48848;BME280;36611;51.638;5.784;2022-11-03T07:44:58;100829.94;;;16.33;54.54
48848;BME280;36611;51.638;5.784;2022-11-03T07:47:26;100831.41;;;16.37;55.01
48848;BME280;36611;51.638;5.784;2022-11-03T07:49:54;100824.84;;;16.39;54.86
48848;BME280;36611;51.638;5.784;2022-11-03T07:52:25;100819.13;;;16.42;55.09
48848;BME280;36611;51.638;5.784;2022-11-03T07:54:54;100816.13;;;16.45;54.49
48848;BME280;36611;51.638;5.784;2022-11-03T07:57:25;100812.09;;;16.49;54.80
48848;BME280;36611;51.638;5.784;2022-11-03T08:00:00;100818.22;;;16.51;54.98
48848;BME280;36611;51.638;5.784;2022-11-03T08:02:43;100807.78;;;16.57;54.61
48848;BME280;36611;51.638;5.784;2022-11-03T08:05:14;100818.19;;;16.61;54.46
48848;BME280;36611;51.638;5.784;2022-11-03T08:07:41;100829.47;;;16.66;54.36
48848;BME280;36611;51.638;5.784;2022-11-03T08:10:08;100824.63;;;16.70;54.96
48848;BME280;36611;51.638;5.784;2022-11-03T08:12:34;100827.19;;;16.71;54.43
48848;BME280;36611;51.638;5.784;2022-11-03T08:15:05;100826.19;;;16.72;54.47
48848;BME280;36611;51.638;5.784;2022-11-03T08:17:32;100817.03;;;16.73;54.25
48848;BME280;36611;51.638;5.784;2022-11-03T08:19:59;100819.59;;;16.75;54.50
48848;BME280;36611;51.638;5.784;2022-11-03T08:22:25;100807.59;;;16.77;54.52
48848;BME280;36611;51.638;5.784;2022-11-03T08:24:56;100805.59;;;16.79;54.69
48848;BME280;36611;51.638;5.784;2022-11-03T08:27:22;100804.44;;;16.82;54.28
48848;BME280;36611;51.638;5.784;2022-11-03T08:29:49;100795.28;;;16.83;54.58
48848;BME280;36611;51.638;5.784;2022-11-03T08:32:15;100776.16;;;16.84;54.57
48848;BME280;36611;51.638;5.784;2022-11-03T08:34:43;100776.84;;;16.87;54.32
48848;BME280;36611;51.638;5.784;2022-11-03T08:37:09;100771.97;;;16.90;54.39
48848;BME280;36611;51.638;5.784;2022-11-03T08:39:36;100768.97;;;16.93;54.49
48848;BME280;36611;51.638;5.784;2022-11-03T08:42:03;100763.53;;;16.93;54.65
48848;BME280;36611;51.638;5.784;2022-11-03T08:44:30;100757.09;;;16.94;54.38
48848;BME280;36611;51.638;5.784;2022-11-03T08:46:57;100741.69;;;16.95;54.31
48848;BME280;36611;51.638;5.784;2022-11-03T08:49:24;100740.69;;;16.96;54.42
48848;BME280;36611;51.638;5.784;2022-11-03T08:51:50;100724.25;;;16.97;54.53
48848;BME280;36611;51.638;5.784;2022-11-03T08:54:20;100720.69;;;16.97;54.21
48848;BME280;36611;51.638;5.784;2022-11-03T08:56:47;100722.09;;;17.01;54.13
48848;BME280;36611;51.638;5.784;2022-11-03T08:59:14;100720.75;;;17.05;54.33
48848;BME280;36611;51.638;5.784;2022-11-03T09:01:43;100714.03;;;17.09;54.43
48848;BME280;36611;51.638;5.784;2022-11-03T09:04:14;100696.63;;;17.11;54.19
48848;BME280;36611;51.638;5.784;2022-11-03T09:06:40;100690.88;;;17.14;54.20
48848;BME280;36611;51.638;5.784;2022-11-03T09:09:07;100678.84;;;17.17;53.85
48848;BME280;36611;51.638;5.784;2022-11-03T09:11:53;100660.25;;;17.22;54.10
48848;BME280;36611;51.638;5.784;2022-11-03T09:14:24;100662.66;;;17.25;54.11
48848;BME280;36611;51.638;5.784;2022-11-03T09:16:50;100666.91;;;17.28;53.77
48848;BME280;36611;51.638;5.784;2022-11-03T09:19:17;100668.47;;;17.30;54.10
48848;BME280;36611;51.638;5.784;2022-11-03T09:21:43;100655.59;;;17.32;53.96
48848;BME280;36611;51.638;5.784;2022-11-03T09:24:11;100652.41;;;17.37;54.03
48848;BME280;36611;51.638;5.784;2022-11-03T09:26:38;100649.22;;;17.41;54.00
48848;BME280;36611;51.638;5.784;2022-11-03T09:29:04;100620.41;;;17.48;53.92
48848;BME280;36611;51.638;5.784;2022-11-03T09:31:31;100622.50;;;17.55;53.63
48848;BME280;36611;51.638;5.784;2022-11-03T09:33:57;100622.88;;;17.60;53.96
48848;BME280;36611;51.638;5.784;2022-11-03T09:36:31;100619.66;;;17.64;53.89
48848;BME280;36611;51.638;5.784;2022-11-03T09:38:57;100609.22;;;17.69;53.43
48848;BME280;36611;51.638;5.784;2022-11-03T09:41:24;100595.31;;;17.72;53.73
48848;BME280;36611;51.638;5.784;2022-11-03T09:44:17;100590.41;;;17.76;53.31
48848;BME280;36611;51.638;5.784;2022-11-03T09:46:43;100579.22;;;17.79;53.07
48848;BME280;36611;51.638;5.784;2022-11-03T09:49:13;100576.72;;;17.86;52.96
48848;BME280;36611;51.638;5.784;2022-11-03T09:51:41;100575.56;;;17.88;53.29
48848;BME280;36611;51.638;5.784;2022-11-03T09:54:17;100572.66;;;17.90;53.22
48848;BME280;36611;51.638;5.784;2022-11-03T09:56:43;100574.91;;;17.94;53.21
48848;BME280;36611;51.638;5.784;2022-11-03T09:59:19;100568.13;;;17.98;53.02
48848;BME280;36611;51.638;5.784;2022-11-03T10:01:48;100573.41;;;18.00;52.97
48848;BME280;36611;51.638;5.784;2022-11-03T10:04:25;100567.09;;;17.99;53.14
48848;BME280;36611;51.638;5.784;2022-11-03T10:06:54;100564.22;;;18.01;53.03
48848;BME280;36611;51.638;5.784;2022-11-03T10:09:22;100550.31;;;18.04;52.65
48848;BME280;36611;51.638;5.784;2022-11-03T10:11:51;100546.59;;;18.05;52.86
48848;BME280;36611;51.638;5.784;2022-11-03T10:14:20;100548.13;;;18.07;52.59
48848;BME280;36611;51.638;5.784;2022-11-03T10:16:52;100536.22;;;18.08;52.79
48848;BME280;36611;51.638;5.784;2022-11-03T10:19:19;100537.09;;;18.09;52.44
48848;BME280;36611;51.638;5.784;2022-11-03T10:21:45;100527.91;;;18.10;52.17
48848;BME280;36611;51.638;5.784;2022-11-03T10:24:15;100532.34;;;18.11;52.46
48848;BME280;36611;51.638;5.784;2022-11-03T10:26:52;100525.88;;;18.12;52.12
48848;BME280;36611;51.638;5.784;2022-11-03T10:29:27;100523.00;;;18.14;52.26
48848;BME280;36611;51.638;5.784;2022-11-03T10:31:55;100510.94;;;18.16;51.93
48848;BME280;36611;51.638;5.784;2022-11-03T10:37:23;100500.75;;;18.18;51.77
48848;BME280;36611;51.638;5.784;2022-11-03T10:39:52;100493.97;;;18.22;51.63
48848;BME280;36611;51.638;5.784;2022-11-03T10:42:20;100486.66;;;18.23;51.63
48848;BME280;36611;51.638;5.784;2022-11-03T10:44:52;100478.69;;;18.21;51.29
48848;BME280;36611;51.638;5.784;2022-11-03T10:49:51;100459.81;;;18.20;51.49
48848;BME280;36611;51.638;5.784;2022-11-03T10:52:22;100452.84;;;18.17;51.00
48848;BME280;36611;51.638;5.784;2022-11-03T10:54:54;100459.31;;;18.16;51.47
48848;BME280;36611;51.638;5.784;2022-11-03T10:57:21;100447.59;;;18.16;51.22
48848;BME280;36611;51.638;5.784;2022-11-03T10:59:50;100445.03;;;18.14;50.95
48848;BME280;36611;51.638;5.784;2022-11-03T11:02:20;100446.72;;;18.15;51.00
48848;BME280;36611;51.638;5.784;2022-11-03T11:04:53;100444.00;;;18.15;50.80
48848;BME280;36611;51.638;5.784;2022-11-03T11:07:24;100438.25;;;18.18;51.04
48848;BME280;36611;51.638;5.784;2022-11-03T11:09:52;100441.66;;;18.20;50.90
48848;BME280;36611;51.638;5.784;2022-11-03T11:12:24;100444.03;;;18.23;50.80
48848;BME280;36611;51.638;5.784;2022-11-03T11:14:58;100430.94;;;18.27;50.96
48848;BME280;36611;51.638;5.784;2022-11-03T11:22:48;100422.28;;;18.39;50.76
48848;BME280;36611;51.638;5.784;2022-11-03T11:25:17;100412.09;;;18.41;50.46
48848;BME280;36611;51.638;5.784;2022-11-03T11:37:50;100403.31;;;18.64;49.94
48848;BME280;36611;51.638;5.784;2022-11-03T11:48:37;100364.78;;;18.99;49.32
48848;BME280;36611;51.638;5.784;2022-11-03T11:51:08;100361.53;;;19.04;49.30
48848;BME280;36611;51.638;5.784;2022-11-03T11:53:40;100352.00;;;19.08;49.31
48848;BME280;36611;51.638;5.784;2022-11-03T11:56:09;100350.78;;;19.11;49.11
48848;BME280;36611;51.638;5.784;2022-11-03T11:58:40;100336.84;;;19.14;49.28
48848;BME280;36611;51.638;5.784;2022-11-03T12:01:30;100339.56;;;19.14;48.73
48848;BME280;36611;51.638;5.784;2022-11-03T12:06:50;100304.47;;;19.19;49.14
48848;BME280;36611;51.638;5.784;2022-11-03T12:09:19;100305.16;;;19.21;48.59
48848;BME280;36611;51.638;5.784;2022-11-03T12:14:25;100286.59;;;19.24;48.50
48848;BME280;36611;51.638;5.784;2022-11-03T12:19:53;100268.88;;;19.28;48.29
48848;BME280;36611;51.638;5.784;2022-11-03T12:24:57;100264.44;;;19.27;48.49
48848;BME280;36611;51.638;5.784;2022-11-03T12:29:52;100263.44;;;19.28;48.32
48848;BME280;36611;51.638;5.784;2022-11-03T12:32:20;100272.97;;;19.32;48.17
48848;BME280;36611;51.638;5.784;2022-11-03T12:35:05;100266.50;;;19.33;48.37
48848;BME280;36611;51.638;5.784;2022-11-03T12:37:33;100272.09;;;19.32;48.51
48848;BME280;36611;51.638;5.784;2022-11-03T12:40:00;100252.19;;;19.31;48.09
48848;BME280;36611;51.638;5.784;2022-11-03T12:42:26;100251.50;;;19.29;48.21
48848;BME280;36611;51.638;5.784;2022-11-03T12:44:54;100244.53;;;19.27;48.16
48848;BME280;36611;51.638;5.784;2022-11-03T12:47:21;100233.84;;;19.25;48.26
48848;BME280;36611;51.638;5.784;2022-11-03T12:49:48;100227.53;;;19.25;48.09
48848;BME280;36611;51.638;5.784;2022-11-03T12:52:14;100225.50;;;19.27;48.10
48848;BME280;36611;51.638;5.784;2022-11-03T12:54:42;100216.28;;;19.28;48.07
48848;BME280;36611;51.638;5.784;2022-11-03T12:57:09;100212.53;;;19.29;48.25
48848;BME280;36611;51.638;5.784;2022-11-03T12:59:36;100191.44;;;19.31;48.17
48848;BME280;36611;51.638;5.784;2022-11-03T13:02:02;100190.25;;;19.33;48.25
48848;BME280;36611;51.638;5.784;2022-11-03T13:04:31;100184.94;;;19.40;48.31
48848;BME280;36611;51.638;5.784;2022-11-03T13:06:58;100176.03;;;19.46;48.23
48848;BME280;36611;51.638;5.784;2022-11-03T13:09:24;100157.97;;;19.53;48.01
48848;BME280;36611;51.638;5.784;2022-11-03T13:11:51;100174.22;;;19.61;47.76
48848;BME280;36611;51.638;5.784;2022-11-03T13:14:37;100156.59;;;19.72;48.09
48848;BME280;36611;51.638;5.784;2022-11-03T13:17:04;100153.78;;;19.80;47.94
48848;BME280;36611;51.638;5.784;2022-11-03T13:19:30;100138.56;;;19.86;47.69
48848;BME280;36611;51.638;5.784;2022-11-03T13:21:57;100137.34;;;19.88;47.71
48848;BME280;36611;51.638;5.784;2022-11-03T13:24:27;100131.06;;;19.88;47.71
48848;BME280;36611;51.638;5.784;2022-11-03T13:26:54;100123.25;;;19.85;47.52
48848;BME280;36611;51.638;5.784;2022-11-03T13:29:20;100127.38;;;19.81;47.48
48848;BME280;36611;51.638;5.784;2022-11-03T13:31:47;100115.16;;;19.77;47.17
48848;BME280;36611;51.638;5.784;2022-11-03T13:34:14;100111.13;;;19.73;47.22
48848;BME280;36611;51.638;5.784;2022-11-03T13:36:41;100106.03;;;19.70;47.45
48848;BME280;36611;51.638;5.784;2022-11-03T13:39:07;100105.38;;;19.67;47.18
48848;BME280;36611;51.638;5.784;2022-11-03T13:41:34;100095.88;;;19.63;47.17
48848;BME280;36611;51.638;5.784;2022-11-03T13:44:01;100089.97;;;19.60;47.19
48848;BME280;36611;51.638;5.784;2022-11-03T13:46:28;100081.31;;;19.56;47.26
48848;BME280;36611;51.638;5.784;2022-11-03T13:48:54;100081.69;;;19.53;47.43
48848;BME280;36611;51.638;5.784;2022-11-03T13:51:41;100082.22;;;19.49;47.21
48848;BME280;36611;51.638;5.784;2022-11-03T13:56:57;100068.31;;;19.44;47.13
48848;BME280;36611;51.638;5.784;2022-11-03T13:59:44;100063.22;;;19.41;47.16
48848;BME280;36611;51.638;5.784;2022-11-03T14:02:11;100057.78;;;19.41;47.43
48848;BME280;36611;51.638;5.784;2022-11-03T14:05:02;100065.28;;;19.39;47.24
48848;BME280;36611;51.638;5.784;2022-11-03T14:07:34;100076.38;;;19.37;47.30